KETN/ETN METAR and TAF weather

Enter ICAO airport designator
Station Type Date Time Source
KETN METAR 2021/03/08 02:35 UTC NOAA

KETN 080235Z AUTO 14008KT 10SM CLR 11/M02 A3031 RMK AO2 T01111024


Station Type Date Time Source
KETN Decoded METAR 2021/03/08 02:35 UTC NOAA

Station name not available
Mar 07, 2021 - 09:35 PM EST / 2021.03.08 0235 UTC
Wind: from the SE (140 degrees) at 9 MPH (8 KT):0
Visibility: 10 mile(s):0
Sky conditions: clear
Temperature: 52.0 F (11.1 C)
Dew Point: 27.7 F (-2.4 C)
Relative Humidity: 38%
Pressure (altimeter): 30.31 in. Hg (1026 hPa)
ob: KETN 080235Z AUTO 14008KT 10SM CLR 11/M02 A3031 RMK AO2 T01111024
cycle: 2

Station Type Date Time Source
KETN TAF UTC NOAA

Error!

Example: see airport list